Time;durP1;ratioP1;P1;durP2;ratioP2;P2;SDS_P1;SDS_P2;PMS_P1;PMS_P2;Temp;Humidity;BMP_temperature;BMP_pressure;BME280_temperature;BME280_humidity;BME280_pressure;Samples;Min_cycle;Max_cycle;Signal;HPM_P1;HPM_P2
2023/10/28 00:01:14;;;;;;;;;;;;;;;;;;10432380;28;19931;-79
2023/10/28 00:06:14;;;;;;;;;;;;;;;;;;10430469;28;20012;-79
2023/10/28 00:11:16;;;;;;;;;;;;;;;;;;10418908;28;20045;-79
2023/10/28 00:16:16;;;;;;;;;;;;;;;;;;10429666;28;19925;-75
2023/10/28 00:21:19;;;;;;;;;;;;;;;;;;10420621;28;20664;-78
2023/10/28 00:26:21;;;;;;;;;;;;;;;;;;10444640;28;19921;-76
2023/10/28 00:31:22;;;;;;;;;;;;;;;;;;10426621;28;19970;-77
2023/10/28 00:36:22;;;;;;;;;;;;;;;;;;10436892;28;20365;-76
2023/10/28 00:41:22;;;;;;;;;;;;;;;;;;10435617;28;20015;-77
2023/10/28 00:46:22;;;;;;;;;;;;;;;;;;10428490;28;19916;-74
2023/10/28 00:51:23;;;;;;;;;;;;;;;;;;10427020;28;20090;-75
2023/10/28 00:56:23;;;;;;;;;;;;;;;;;;10432993;28;19982;-75
2023/10/28 01:01:23;;;;;;;;;;;;;;;;;;10427455;28;19921;-73
2023/10/28 01:06:23;;;;;;;;;;;;;;;;;;10430200;28;19921;-76
2023/10/28 01:11:24;;;;;;;;;;;;;;;;;;10425324;28;20087;-79
2023/10/28 01:16:26;;;;;;;;;;;;;;;;;;10426760;28;19928;-78
2023/10/28 01:21:26;;;;;;;;;;;;;;;;;;10440332;28;19917;-74
2023/10/28 01:26:27;;;;;;;;;;;;;;;;;;10435142;28;19920;-75
2023/10/28 01:31:27;;;;;;;;;;;;;;;;;;10437806;28;19928;-73
2023/10/28 01:36:29;;;;;;;;;;;;;;;;;;10444567;28;20694;-76
2023/10/28 01:41:29;;;;;;;;;;;;;;;;;;10424927;28;19998;-79
2023/10/28 01:46:30;;;;;;;;;;;;;;;;;;10443153;28;19925;-78
2023/10/28 01:51:30;;;;;;;;;;;;;;;;;;10439221;28;19983;-75
2023/10/28 01:56:30;;;;;;;;;;;;;;;;;;10417529;28;19962;-78
2023/10/28 02:01:30;;;;;;;;;;;;;;;;;;10417854;28;19975;-77
2023/10/28 02:06:31;;;;;;;;;;;;;;;;;;10420954;28;19925;-72
2023/10/28 02:11:32;;;;;;;;;;;;;;;;;;10433003;28;19928;-74
2023/10/28 02:16:32;;;;;;;;;;;;;;;;;;10421372;28;19935;-77
2023/10/28 02:21:32;;;;;;;;;;;;;;;;;;10425361;28;19931;-74
2023/10/28 02:26:34;;;;;;;;;;;;;;;;;;10437281;28;20059;-77
2023/10/28 02:31:35;;;;;;;;;;;;;;;;;;10438520;28;19928;-74
2023/10/28 02:36:35;;;;;;;;;;;;;;;;;;10423216;28;20621;-74
2023/10/28 02:41:35;;;;;;;;;;;;;;;;;;10433490;28;19920;-75
2023/10/28 02:46:35;;;;;;;;;;;;;;;;;;10432783;28;19920;-77
2023/10/28 02:51:36;;;;;;;;;;;;;;;;;;10422212;28;20303;-74
2023/10/28 02:56:38;;;;;;;;;;;;;;;;;;10430012;28;20388;-75
2023/10/28 03:01:39;;;;;;;;;;;;;;;;;;10428605;28;19925;-78
2023/10/28 03:06:39;;;;;;;;;;;;;;;;;;10432842;28;19927;-78
2023/10/28 03:11:40;;;;;;;;;;;;;;;;;;10429608;28;19933;-76
2023/10/28 03:16:41;;;;;;;;;;;;;;;;;;10417971;28;20003;-74
2023/10/28 03:21:41;;;;;;;;;;;;;;;;;;10440826;28;20020;-75
2023/10/28 03:26:42;;;;;;;;;;;;;;;;;;10438850;28;19927;-75
2023/10/28 03:31:42;;;;;;;;;;;;;;;;;;10438508;28;19998;-75
2023/10/28 03:36:42;;;;;;;;;;;;;;;;;;10439561;28;19920;-75
2023/10/28 03:41:43;;;;;;;;;;;;;;;;;;10434519;28;19920;-75
2023/10/28 03:46:43;;;;;;;;;;;;;;;;;;10434899;28;19951;-80
2023/10/28 03:51:44;;;;;;;;;;;;;;;;;;10411493;28;20444;-76
2023/10/28 03:56:44;;;;;;;;;;;;;;;;;;10437732;28;19921;-78
2023/10/28 04:01:44;;;;;;;;;;;;;;;;;;10434841;28;19956;-78
2023/10/28 04:06:44;;;;;;;;;;;;;;;;;;10422545;28;20179;-75
2023/10/28 04:11:45;;;;;;;;;;;;;;;;;;10416932;28;19929;-75
2023/10/28 04:16:45;;;;;;;;;;;;;;;;;;10437035;28;19927;-75
2023/10/28 04:21:46;;;;;;;;;;;;;;;;;;10438816;28;19927;-76
2023/10/28 04:26:46;;;;;;;;;;;;;;;;;;10430826;28;20456;-75
2023/10/28 04:31:47;;;;;;;;;;;;;;;;;;10430059;28;19925;-75
2023/10/28 04:36:47;;;;;;;;;;;;;;;;;;10426890;28;19983;-75
2023/10/28 04:41:47;;;;;;;;;;;;;;;;;;10419825;28;19931;-76
2023/10/28 04:46:48;;;;;;;;;;;;;;;;;;10433713;28;20640;-76
2023/10/28 04:51:49;;;;;;;;;;;;;;;;;;10409748;28;19968;-75
2023/10/28 04:56:49;;;;;;;;;;;;;;;;;;10431377;28;19947;-74
2023/10/28 05:01:50;;;;;;;;;;;;;;;;;;10439664;28;19999;-75
2023/10/28 05:06:50;;;;;;;;;;;;;;;;;;10431257;28;19920;-74
2023/10/28 05:11:51;;;;;;;;;;;;;;;;;;10421349;28;20052;-75
2023/10/28 05:16:51;;;;;;;;;;;;;;;;;;10419328;28;19928;-78
2023/10/28 05:21:51;;;;;;;;;;;;;;;;;;10429328;28;19924;-79
2023/10/28 05:26:51;;;;;;;;;;;;;;;;;;10431486;28;19916;-78
2023/10/28 05:31:56;;;;;;;;;;;;;;;;;;10434436;28;19925;-80
2023/10/28 05:36:56;;;;;;;;;;;;;;;;;;10427946;28;19944;-79
2023/10/28 05:41:56;;;;;;;;;;;;;;;;;;10428882;28;20630;-74
2023/10/28 05:46:59;;;;;;;;;;;;;;;;;;10427518;28;19924;-76
2023/10/28 05:51:59;;;;;;;;;;;;;;;;;;10419758;28;21049;-79
2023/10/28 05:56:59;;;;;;;;;;;;;;;;;;10420756;28;19924;-78
2023/10/28 06:02:02;;;;;;;;;;;;;;;;;;10415705;28;19939;-77
2023/10/28 06:07:02;;;;;;;;;;;;;;;;;;10414172;28;19932;-78
2023/10/28 06:12:02;;;;;;;;;;;;;;;;;;10422546;28;20312;-78
2023/10/28 06:17:04;;;;;;;;;;;;;;;;;;10423268;28;19921;-80
2023/10/28 06:22:04;;;;;;;;;;;;;;;;;;10421727;28;19924;-76
2023/10/28 06:27:04;;;;;;;;;;;;;;;;;;10420785;28;19928;-78
2023/10/28 06:32:06;;;;;;;;;;;;;;;;;;10433738;28;19929;-78
2023/10/28 06:37:07;;;;;;;;;;;;;;;;;;10436071;28;19916;-75
2023/10/28 06:42:08;;;;;;;;;;;;;;;;;;10430678;28;19936;-75
2023/10/28 06:47:09;;;;;;;;;;;;;;;;;;10418859;28;20061;-78
2023/10/28 06:52:09;;;;;;;;;;;;;;;;;;10436635;28;19982;-77
2023/10/28 06:57:10;;;;;;;;;;;;;;;;;;10434960;28;19974;-78
2023/10/28 07:02:10;;;;;;;;;;;;;;;;;;10436683;28;19940;-77
2023/10/28 07:07:14;;;;;;;;;;;;;;;;;;10415975;28;19917;-83
2023/10/28 07:12:14;;;;;;;;;;;;;;;;;;10427589;28;19933;-79
2023/10/28 07:17:14;;;;;;;;;;;;;;;;;;10436976;28;19925;-78
2023/10/28 07:22:16;;;;;;;;;;;;;;;;;;10417535;28;19932;-77
2023/10/28 07:27:18;;;;;;;;;;;;;;;;;;10437032;28;19925;-75
2023/10/28 07:32:18;;;;;;;;;;;;;;;;;;10437521;28;19935;-78
2023/10/28 07:37:19;;;;;;;;;;;;;;;;;;10416845;28;19931;-77
2023/10/28 07:42:22;;;;;;;;;;;;;;;;;;10428010;28;19927;-79
2023/10/28 07:47:22;;;;;;;;;;;;;;;;;;10435013;28;20062;-75
2023/10/28 07:52:22;;;;;;;;;;;;;;;;;;10431053;28;19925;-74
2023/10/28 07:57:22;;;;;;;;;;;;;;;;;;10420707;28;20515;-75
2023/10/28 08:02:22;;;;;;;;;;;;;;;;;;10429756;28;19923;-75
2023/10/28 08:07:23;;;;;;;;;;;;;;;;;;10426715;28;19928;-75
2023/10/28 08:12:26;;;;;;;;;;;;;;;;;;10421941;28;20427;-78
2023/10/28 08:17:26;;;;;;;;;;;;;;;;;;10420339;28;20022;-81
2023/10/28 08:22:27;;;;;;;;;;;;;;;;;;10483085;22;20344;-86
2023/10/28 08:27:36;;;;;;;;;;;;;;;;;;10511044;28;19979;-86
2023/10/28 08:32:44;;;;;;;;;;;;;;;;;;10483106;28;19944;-88
2023/10/28 08:37:46;;;;;;;;;;;;;;;;;;10503077;28;19982;-89
2023/10/28 08:42:51;;;;;;;;;;;;;;;;;;10534249;28;19931;-86
2023/10/28 08:48:01;;;;;;;;;;;;;;;;;;10523650;28;19924;-85
2023/10/28 08:53:10;;;;;;;;;;;;;;;;;;10511904;28;19916;-86
2023/10/28 08:58:12;;;;;;;;;;;;;;;;;;10514321;28;19928;-88
2023/10/28 09:03:15;;;;;;;;;;;;;;;;;;10528994;28;19924;-86
2023/10/28 09:08:38;;;;;;;;;;;;;;;;;;10480144;28;19920;-85
2023/10/28 09:13:45;;;;;;;;;;;;;;;;;;10471467;28;19920;-86
2023/10/28 09:18:51;;;;;;;;;;;;;;;;;;10483495;28;20408;-87
2023/10/28 09:23:52;;;;;;;;;;;;;;;;;;10494066;28;19970;-88
2023/10/28 09:28:53;;;;;;;;;;;;;;;;;;10497583;28;19934;-85
2023/10/28 09:33:54;;;;;;;;;;;;;;;;;;10539753;28;19909;-87
2023/10/28 09:39:04;;;;;;;;;;;;;;;;;;10518076;28;19912;-85
2023/10/28 09:49:18;;;;;;;;;;;;;;;;;;10527850;22;19952;-82
2023/10/28 09:54:19;;;;;;;;;;;;;;;;;;10523428;28;20015;-76
2023/10/28 09:59:20;;;;;;;;;;;;;;;;;;10509173;28;20645;-81
2023/10/28 10:04:20;;;;;;;;;;;;;;;;;;10508903;28;19920;-79
2023/10/28 10:09:20;;;;;;;;;;;;;;;;;;10517162;28;20593;-81
2023/10/28 10:14:21;;;;;;;;;;;;;;;;;;10517001;28;19920;-77
2023/10/28 10:19:22;;;;;;;;;;;;;;;;;;10517542;28;19917;-77
2023/10/28 10:24:24;;;;;;;;;;;;;;;;;;10518477;28;19920;-78
2023/10/28 10:29:27;;;;;;;;;;;;;;;;;;10512075;28;19928;-82
2023/10/28 10:34:27;;;;;;;;;;;;;;;;;;10515508;28;20322;-79
2023/10/28 10:39:27;;;;;;;;;;;;;;;;;;10515247;28;19960;-80
2023/10/28 10:44:28;;;;;;;;;;;;;;;;;;10508334;28;19952;-80
2023/10/28 10:49:30;;;;;;;;;;;;;;;;;;10511366;28;19989;-79
2023/10/28 10:54:30;;;;;;;;;;;;;;;;;;10508261;28;19930;-78
2023/10/28 10:59:30;;;;;;;;;;;;;;;;;;10509180;28;19963;-82
2023/10/28 11:04:31;;;;;;;;;;;;;;;;;;10511581;28;19924;-79
2023/10/28 11:09:32;;;;;;;;;;;;;;;;;;10515893;28;19932;-76
2023/10/28 11:14:32;;;;;;;;;;;;;;;;;;10518812;28;19920;-78
2023/10/28 11:19:33;;;;;;;;;;;;;;;;;;10518372;28;19920;-76
2023/10/28 11:24:33;;;;;;;;;;;;;;;;;;10512707;28;19932;-74
2023/10/28 11:29:37;;;;;;;;;;;;;;;;;;10511812;28;19958;-76
2023/10/28 11:34:37;;;;;;;;;;;;;;;;;;10519033;28;20045;-72
2023/10/28 11:39:37;;;;;;;;;;;;;;;;;;10515840;28;20419;-76
2023/10/28 11:44:38;;;;;;;;;;;;;;;;;;10515214;28;20904;-75
2023/10/28 11:49:38;;;;;;;;;;;;;;;;;;10517336;28;19976;-74
2023/10/28 11:54:38;;;;;;;;;;;;;;;;;;10517771;28;19924;-74
2023/10/28 11:59:38;;;;;;;;;;;;;;;;;;10514744;28;20396;-75
2023/10/28 12:04:38;;;;;;;;;;;;;;;;;;10515672;28;19930;-75
2023/10/28 12:09:39;;;;;;;;;;;;;;;;;;10512923;28;19939;-75
2023/10/28 12:14:39;;;;;;;;;;;;;;;;;;10521810;28;20048;-74
2023/10/28 12:19:40;;;;;;;;;;;;;;;;;;10490954;28;19924;-77
2023/10/28 12:24:41;;;;;;;;;;;;;;;;;;10492348;28;21313;-78
2023/10/28 12:29:44;;;;;;;;;;;;;;;;;;10510143;28;19932;-77
2023/10/28 12:34:44;;;;;;;;;;;;;;;;;;10500232;28;20541;-77
2023/10/28 12:39:45;;;;;;;;;;;;;;;;;;10515364;28;19936;-76
2023/10/28 12:44:45;;;;;;;;;;;;;;;;;;10505306;28;20052;-76
2023/10/28 12:49:48;;;;;;;;;;;;;;;;;;10505941;28;20370;-74
2023/10/28 12:54:49;;;;;;;;;;;;;;;;;;10506979;28;20579;-76
2023/10/28 12:59:50;;;;;;;;;;;;;;;;;;10487450;28;19927;-76
2023/10/28 13:04:50;;;;;;;;;;;;;;;;;;10508174;28;20621;-76
2023/10/28 13:09:50;;;;;;;;;;;;;;;;;;10491087;28;19928;-77
2023/10/28 13:14:50;;;;;;;;;;;;;;;;;;10512836;28;19930;-76
2023/10/28 13:19:51;;;;;;;;;;;;;;;;;;10509440;28;19920;-75
2023/10/28 13:24:51;;;;;;;;;;;;;;;;;;10509438;28;20023;-73
2023/10/28 13:29:51;;;;;;;;;;;;;;;;;;10509101;28;19932;-74
2023/10/28 13:34:51;;;;;;;;;;;;;;;;;;10513733;28;19927;-73
2023/10/28 13:39:52;;;;;;;;;;;;;;;;;;10488402;28;19916;-76
2023/10/28 13:44:53;;;;;;;;;;;;;;;;;;10499982;28;19920;-75
2023/10/28 13:49:53;;;;;;;;;;;;;;;;;;10483160;28;20599;-77
2023/10/28 13:54:53;;;;;;;;;;;;;;;;;;10502604;28;19924;-76
2023/10/28 13:59:54;;;;;;;;;;;;;;;;;;10511461;28;19920;-79
2023/10/28 14:04:54;;;;;;;;;;;;;;;;;;10517008;28;20469;-77
2023/10/28 14:09:54;;;;;;;;;;;;;;;;;;10512048;28;19928;-78
2023/10/28 14:14:54;;;;;;;;;;;;;;;;;;10490427;28;20770;-80
2023/10/28 14:19:56;;;;;;;;;;;;;;;;;;10514715;28;19927;-79
2023/10/28 14:24:56;;;;;;;;;;;;;;;;;;10506779;28;19960;-78
2023/10/28 14:29:57;;;;;;;;;;;;;;;;;;10507275;28;19928;-77
2023/10/28 14:34:58;;;;;;;;;;;;;;;;;;10509111;28;20311;-75
2023/10/28 14:39:58;;;;;;;;;;;;;;;;;;10507838;28;20901;-74
2023/10/28 14:44:58;;;;;;;;;;;;;;;;;;10489520;28;20052;-75
2023/10/28 14:49:59;;;;;;;;;;;;;;;;;;10505255;28;19932;-74
2023/10/28 14:54:59;;;;;;;;;;;;;;;;;;10478681;28;19965;-77
2023/10/28 14:59:59;;;;;;;;;;;;;;;;;;10515062;28;19924;-77
2023/10/28 15:04:59;;;;;;;;;;;;;;;;;;10516037;28;19995;-76
2023/10/28 15:10:00;;;;;;;;;;;;;;;;;;10496784;28;19928;-76
2023/10/28 15:15:00;;;;;;;;;;;;;;;;;;10514171;28;19931;-74
2023/10/28 15:20:00;;;;;;;;;;;;;;;;;;10514400;28;19931;-75
2023/10/28 15:25:01;;;;;;;;;;;;;;;;;;10496658;28;19924;-74
2023/10/28 15:30:02;;;;;;;;;;;;;;;;;;10514076;28;19928;-76
2023/10/28 15:35:03;;;;;;;;;;;;;;;;;;10510709;28;20041;-73
2023/10/28 15:40:03;;;;;;;;;;;;;;;;;;10506178;28;19924;-74
2023/10/28 15:45:04;;;;;;;;;;;;;;;;;;10505929;28;20665;-74
2023/10/28 15:50:04;;;;;;;;;;;;;;;;;;10502920;28;19928;-76
2023/10/28 15:55:08;;;;;;;;;;;;;;;;;;10501530;28;19927;-79
2023/10/28 16:00:08;;;;;;;;;;;;;;;;;;10509702;28;19920;-74
2023/10/28 16:05:09;;;;;;;;;;;;;;;;;;10512753;28;20287;-73
2023/10/28 16:10:10;;;;;;;;;;;;;;;;;;10511742;28;19979;-76
2023/10/28 16:15:14;;;;;;;;;;;;;;;;;;10513398;28;19920;-75
2023/10/28 16:20:15;;;;;;;;;;;;;;;;;;10511726;28;20493;-76
2023/10/28 16:25:15;;;;;;;;;;;;;;;;;;10510042;28;19926;-75
2023/10/28 16:30:15;;;;;;;;;;;;;;;;;;10492104;28;19940;-78
2023/10/28 16:35:16;;;;;;;;;;;;;;;;;;10514152;28;19927;-78
2023/10/28 16:40:16;;;;;;;;;;;;;;;;;;10510088;28;19934;-75
2023/10/28 16:45:16;;;;;;;;;;;;;;;;;;10512101;28;19963;-74
2023/10/28 16:50:16;;;;;;;;;;;;;;;;;;10494671;28;20040;-74
2023/10/28 16:55:18;;;;;;;;;;;;;;;;;;10509543;28;20001;-73
2023/10/28 17:00:19;;;;;;;;;;;;;;;;;;10514963;28;19923;-75
2023/10/28 17:05:20;;;;;;;;;;;;;;;;;;10515298;28;20805;-75
2023/10/28 17:10:20;;;;;;;;;;;;;;;;;;10509066;28;19928;-76
2023/10/28 17:15:21;;;;;;;;;;;;;;;;;;10508997;28;19927;-77
2023/10/28 17:20:22;;;;;;;;;;;;;;;;;;10509990;28;19929;-77
2023/10/28 17:25:22;;;;;;;;;;;;;;;;;;10505174;28;20392;-78
2023/10/28 17:30:23;;;;;;;;;;;;;;;;;;10507989;28;19978;-75
2023/10/28 17:35:23;;;;;;;;;;;;;;;;;;10489144;28;19920;-74
2023/10/28 17:40:23;;;;;;;;;;;;;;;;;;10510836;28;19924;-74
2023/10/28 17:45:24;;;;;;;;;;;;;;;;;;10508712;28;19986;-75
2023/10/28 17:50:24;;;;;;;;;;;;;;;;;;10511440;28;20584;-77
2023/10/28 17:55:25;;;;;;;;;;;;;;;;;;10476182;28;20655;-79
2023/10/28 18:00:25;;;;;;;;;;;;;;;;;;10517356;28;19971;-78
2023/10/28 18:05:25;;;;;;;;;;;;;;;;;;10511600;28;19920;-78
2023/10/28 18:10:25;;;;;;;;;;;;;;;;;;10475219;28;19928;-76
2023/10/28 18:15:27;;;;;;;;;;;;;;;;;;10512947;28;19924;-76
2023/10/28 18:20:27;;;;;;;;;;;;;;;;;;10509641;28;19978;-74
2023/10/28 18:25:27;;;;;;;;;;;;;;;;;;10507964;28;19943;-74
2023/10/28 18:30:28;;;;;;;;;;;;;;;;;;10483754;28;20479;-75
2023/10/28 18:35:29;;;;;;;;;;;;;;;;;;10496240;28;19963;-75
2023/10/28 18:40:29;;;;;;;;;;;;;;;;;;10511503;28;19967;-75
2023/10/28 18:45:29;;;;;;;;;;;;;;;;;;10506641;28;19924;-73
2023/10/28 18:50:30;;;;;;;;;;;;;;;;;;10506537;28;20346;-77
2023/10/28 18:55:30;;;;;;;;;;;;;;;;;;10490083;28;19920;-75
2023/10/28 19:00:31;;;;;;;;;;;;;;;;;;10510398;28;19918;-75
2023/10/28 19:05:33;;;;;;;;;;;;;;;;;;10515430;28;19981;-76
2023/10/28 19:10:33;;;;;;;;;;;;;;;;;;10514276;28;19938;-74
2023/10/28 19:15:33;;;;;;;;;;;;;;;;;;10515667;28;19931;-75
2023/10/28 19:20:34;;;;;;;;;;;;;;;;;;10517994;28;19924;-78
2023/10/28 19:25:34;;;;;;;;;;;;;;;;;;10518325;28;19973;-79
2023/10/28 19:30:34;;;;;;;;;;;;;;;;;;10516876;28;19932;-76
2023/10/28 19:35:34;;;;;;;;;;;;;;;;;;10518831;28;19920;-78
2023/10/28 19:40:36;;;;;;;;;;;;;;;;;;10516889;28;19920;-76
2023/10/28 19:45:36;;;;;;;;;;;;;;;;;;10515230;28;19928;-74
2023/10/28 19:50:36;;;;;;;;;;;;;;;;;;10515278;28;19928;-75
2023/10/28 19:55:36;;;;;;;;;;;;;;;;;;10513422;28;19927;-75
2023/10/28 20:00:37;;;;;;;;;;;;;;;;;;10498744;28;19956;-76
2023/10/28 20:05:37;;;;;;;;;;;;;;;;;;10514854;28;19923;-76
2023/10/28 20:10:38;;;;;;;;;;;;;;;;;;10515153;28;19951;-75
2023/10/28 20:15:38;;;;;;;;;;;;;;;;;;10514895;28;19950;-76
2023/10/28 20:20:38;;;;;;;;;;;;;;;;;;10506333;28;20586;-76
2023/10/28 20:25:38;;;;;;;;;;;;;;;;;;10508488;28;19924;-77
2023/10/28 20:30:39;;;;;;;;;;;;;;;;;;10492052;28;20296;-78
2023/10/28 20:35:39;;;;;;;;;;;;;;;;;;10512874;28;20078;-81
2023/10/28 20:40:41;;;;;;;;;;;;;;;;;;10506377;28;19994;-82
2023/10/28 20:45:41;;;;;;;;;;;;;;;;;;10508149;28;19935;-77
2023/10/28 20:50:42;;;;;;;;;;;;;;;;;;10503393;28;19932;-76
2023/10/28 20:55:42;;;;;;;;;;;;;;;;;;10508786;28;19945;-76
2023/10/28 21:00:43;;;;;;;;;;;;;;;;;;10511898;28;19924;-77
2023/10/28 21:05:44;;;;;;;;;;;;;;;;;;10514781;28;20011;-75
2023/10/28 21:10:44;;;;;;;;;;;;;;;;;;10507310;28;19934;-76
2023/10/28 21:15:45;;;;;;;;;;;;;;;;;;10493804;28;19919;-75
2023/10/28 21:20:45;;;;;;;;;;;;;;;;;;10509922;28;19963;-76
2023/10/28 21:25:45;;;;;;;;;;;;;;;;;;10509145;28;20396;-76
2023/10/28 21:30:45;;;;;;;;;;;;;;;;;;10489370;28;19939;-77
2023/10/28 21:35:46;;;;;;;;;;;;;;;;;;10505461;28;20014;-75
2023/10/28 21:40:46;;;;;;;;;;;;;;;;;;10502971;28;20038;-76
2023/10/28 21:45:46;;;;;;;;;;;;;;;;;;10502588;28;19932;-76
2023/10/28 21:50:49;;;;;;;;;;;;;;;;;;10505007;28;19943;-75
2023/10/28 21:55:49;;;;;;;;;;;;;;;;;;10505506;28;20297;-77
2023/10/28 22:00:50;;;;;;;;;;;;;;;;;;10512937;28;19920;-76
2023/10/28 22:05:51;;;;;;;;;;;;;;;;;;10501053;28;19920;-76
2023/10/28 22:10:51;;;;;;;;;;;;;;;;;;10518089;28;19935;-76
2023/10/28 22:15:51;;;;;;;;;;;;;;;;;;10527300;28;19917;-77
2023/10/28 22:20:52;;;;;;;;;;;;;;;;;;10518248;28;19955;-74
2023/10/28 22:25:52;;;;;;;;;;;;;;;;;;10523802;28;19916;-76
2023/10/28 22:30:52;;;;;;;;;;;;;;;;;;10519994;28;19964;-77
2023/10/28 22:35:52;;;;;;;;;;;;;;;;;;10519341;28;19916;-74
2023/10/28 22:40:53;;;;;;;;;;;;;;;;;;10516429;28;19922;-77
2023/10/28 22:45:53;;;;;;;;;;;;;;;;;;10516998;28;19931;-78
2023/10/28 22:50:53;;;;;;;;;;;;;;;;;;10515356;28;19935;-76
2023/10/28 22:55:53;;;;;;;;;;;;;;;;;;10516217;28;20728;-79
2023/10/28 23:00:54;;;;;;;;;;;;;;;;;;10521186;28;19931;-79
2023/10/28 23:05:54;;;;;;;;;;;;;;;;;;10524018;28;19955;-78
2023/10/28 23:10:54;;;;;;;;;;;;;;;;;;10518733;28;19951;-76
2023/10/28 23:15:55;;;;;;;;;;;;;;;;;;10495307;28;19920;-79
2023/10/28 23:20:55;;;;;;;;;;;;;;;;;;10512966;28;19927;-74
2023/10/28 23:25:56;;;;;;;;;;;;;;;;;;10494543;28;19916;-76
2023/10/28 23:30:56;;;;;;;;;;;;;;;;;;10517618;28;19928;-77
2023/10/28 23:35:56;;;;;;;;;;;;;;;;;;10507798;28;19920;-75
2023/10/28 23:40:56;;;;;;;;;;;;;;;;;;10505566;28;19916;-75
2023/10/28 23:45:57;;;;;;;;;;;;;;;;;;10504849;28;19950;-76
2023/10/28 23:50:57;;;;;;;;;;;;;;;;;;10502220;28;19970;-75
2023/10/28 23:55:57;;;;;;;;;;;;;;;;;;10508334;28;20493;-76
